Snow/Ice From: 17-12-2017 10:00 Until: 18-12-2017 06:00 warning for: Snow/Ice Level: Yellow info button

Although rather usual in this region, locally or potentially dangerous phenomena are expected. (such as local winds, summer thunderstorms, rising streams or high waves) Be aware and pay attention to the latest weather updates, especially if you carry out activities exposed to weather or close to a stream or shoreline. 


Meteo18 Weather Cam more information Meteo18 Weather Cam


Thunder radar more information blitzortung!


warning for Snow/Ice more information rain snow radar


Visit our other weather sites:

Template documentation
and downloads

And another site



Weather Underground History page Text

Daily Summary for August 29, 2017 Units:  Metric    English   Both
« Previous Day
Next Day »
Daily Weekly Monthly Yearly Custom
  High: Low: Average:
Temperature: 35.6 °C 18.8 °C 27.4 °C
Dew Point: 20.0 °C 13.4 °C 16.4 °C
Humidity: 82 % 27 % 55 %
Wind Speed: 20.9 km/h 0.0 km/h 2.8 km/h
Wind Gust: 25.7 km/h - -
Wind:- - South
Pressure: 1016.1 hPa 1010.7 hPa -
Precipitation: 0.0 mm    
Historical Graphs
 
 
Tabular Data for August 29, 2017
Time Temperature Dew Point Pressure Wind Wind Speed Wind Gust Humidity Rainfall Rate (Hourly)
00:02 24.5 °C 16.5 °C 1016.1 hPa North 8.0 km/h 9.7 km/h 61 % 0.0 mm
00:12 24.5 °C 16.5 °C 1016.1 hPa NE 1.6 km/h 9.7 km/h 61 % 0.0 mm
00:17 24.4 °C 16.4 °C 1016.1 hPa Calm   11.3 km/h 61 % 0.0 mm
00:22 24.4 °C 16.4 °C 1016.1 hPa ENE 3.2 km/h 11.3 km/h 61 % 0.0 mm
00:32 24.2 °C 16.2 °C 1016.1 hPa Calm   9.7 km/h 61 % 0.0 mm
00:42 23.9 °C 16.2 °C 1016.1 hPa North 3.2 km/h 9.7 km/h 62 % 0.0 mm
00:52 23.9 °C 16.2 °C 1016.1 hPa ENE 6.4 km/h 9.7 km/h 62 % 0.0 mm
00:57 23.8 °C 16.3 °C 1015.8 hPa NNE 9.7 km/h 9.7 km/h 63 % 0.0 mm
01:02 23.8 °C 16.3 °C 1015.8 hPa NE 9.7 km/h 9.7 km/h 63 % 0.0 mm
01:12 23.7 °C 16.2 °C 1015.8 hPa NNW 3.2 km/h 11.3 km/h 63 % 0.0 mm
01:17 23.7 °C 16.5 °C 1015.8 hPa NNE 3.2 km/h 9.7 km/h 64 % 0.0 mm
01:22 23.7 °C 16.5 °C 1015.8 hPa Calm   9.7 km/h 64 % 0.0 mm
01:27 23.6 °C 16.4 °C 1015.8 hPa WNW 1.6 km/h 9.7 km/h 64 % 0.0 mm
01:32 23.3 °C 16.3 °C 1015.8 hPa NW 4.8 km/h 9.7 km/h 65 % 0.0 mm
01:37 23.2 °C 16.3 °C 1015.8 hPa NNW 1.6 km/h 6.4 km/h 65 % 0.0 mm
01:42 23.4 °C 16.4 °C 1015.8 hPa Calm   4.8 km/h 65 % 0.0 mm
01:47 23.4 °C 16.4 °C 1015.8 hPa Calm   8.0 km/h 65 % 0.0 mm
01:52 23.4 °C 16.4 °C 1015.8 hPa North 1.6 km/h 8.0 km/h 65 % 0.0 mm
01:57 23.3 °C 16.3 °C 1015.8 hPa NNE 1.6 km/h 8.0 km/h 65 % 0.0 mm
02:02 23.3 °C 16.3 °C 1015.5 hPa Calm   6.4 km/h 65 % 0.0 mm
02:12 23.3 °C 16.3 °C 1015.5 hPa Calm   6.4 km/h 65 % 0.0 mm
02:17 23.3 °C 16.3 °C 1015.8 hPa NNE 1.6 km/h 6.4 km/h 65 % 0.0 mm
02:22 23.3 °C 16.3 °C 1015.5 hPa NNE 1.6 km/h 4.8 km/h 65 % 0.0 mm
02:27 23.1 °C 16.4 °C 1015.5 hPa Calm   4.8 km/h 66 % 0.0 mm
02:32 22.7 °C 16.3 °C 1015.5 hPa Calm   4.8 km/h 67 % 0.0 mm
02:37 22.2 °C 16.2 °C 1015.5 hPa WNW 3.2 km/h 4.8 km/h 69 % 0.0 mm
02:42 21.9 °C 16.4 °C 1015.5 hPa WNW 3.2 km/h 3.2 km/h 71 % 0.0 mm
02:52 22.3 °C 16.3 °C 1015.5 hPa Calm   3.2 km/h 69 % 0.0 mm
02:57 22.3 °C 16.3 °C 1015.5 hPa North 1.6 km/h 3.2 km/h 69 % 0.0 mm
03:02 22.3 °C 16.3 °C 1015.5 hPa North 1.6 km/h 3.2 km/h 69 % 0.0 mm
03:12 22.2 °C 16.5 °C 1015.1 hPa Calm   3.2 km/h 70 % 0.0 mm
03:17 22.1 °C 16.4 °C 1015.1 hPa Calm   1.6 km/h 70 % 0.0 mm
03:22 22.2 °C 16.5 °C 1015.5 hPa NNW 1.6 km/h 1.6 km/h 70 % 0.0 mm
03:32 22.2 °C 16.5 °C 1015.1 hPa NNW 1.6 km/h 3.2 km/h 70 % 0.0 mm
03:37 22.1 °C 16.4 °C 1015.1 hPa NNW 1.6 km/h 3.2 km/h 70 % 0.0 mm
03:42 22.1 °C 16.4 °C 1015.1 hPa NNW 1.6 km/h 3.2 km/h 70 % 0.0 mm
03:47 22.0 °C 16.3 °C 1015.1 hPa NNE 1.6 km/h 3.2 km/h 70 % 0.0 mm
03:52 21.8 °C 16.3 °C 1015.1 hPa NNE 1.6 km/h 4.8 km/h 71 % 0.0 mm
03:57 21.6 °C 16.3 °C 1015.1 hPa Calm   4.8 km/h 72 % 0.0 mm
04:02 21.6 °C 16.3 °C 1014.8 hPa Calm   4.8 km/h 72 % 0.0 mm
04:12 21.7 °C 16.4 °C 1014.8 hPa Calm   3.2 km/h 72 % 0.0 mm
04:17 21.7 °C 16.4 °C 1014.8 hPa NNW 1.6 km/h 3.2 km/h 72 % 0.0 mm
04:22 21.7 °C 16.4 °C 1014.8 hPa Calm   3.2 km/h 72 % 0.0 mm
04:27 21.4 °C 16.4 °C 1014.8 hPa NW 3.2 km/h 3.2 km/h 73 % 0.0 mm
04:32 21.0 °C 16.4 °C 1014.8 hPa NW 1.6 km/h 3.2 km/h 75 % 0.0 mm
04:42 21.2 °C 16.4 °C 1014.8 hPa Calm   3.2 km/h 74 % 0.0 mm
04:47 20.8 °C 16.2 °C 1014.8 hPa Calm   1.6 km/h 75 % 0.0 mm
04:52 20.6 °C 16.2 °C 1014.8 hPa Calm   1.6 km/h 76 % 0.0 mm
04:57 20.7 °C 16.3 °C 1014.8 hPa North 1.6 km/h 1.6 km/h 76 % 0.0 mm
05:02 20.8 °C 16.2 °C 1014.8 hPa NW 1.6 km/h 3.2 km/h 75 % 0.0 mm
05:07 20.9 °C 16.1 °C 1014.8 hPa NNW 3.2 km/h 3.2 km/h 74 % 0.0 mm
05:22 20.8 °C 16.2 °C 1014.8 hPa North 1.6 km/h 3.2 km/h 75 % 0.0 mm
05:32 20.7 °C 16.1 °C 1014.4 hPa North 1.6 km/h 3.2 km/h 75 % 0.0 mm
05:42 20.3 °C 16.1 °C 1014.4 hPa North 1.6 km/h 3.2 km/h 77 % 0.0 mm
05:52 20.3 °C 15.9 °C 1014.4 hPa NNW 1.6 km/h 3.2 km/h 76 % 0.0 mm
05:57 20.3 °C 15.9 °C 1014.4 hPa Calm   3.2 km/h 76 % 0.0 mm
06:02 20.2 °C 16.0 °C 1014.4 hPa Calm   3.2 km/h 77 % 0.0 mm
06:07 20.1 °C 15.9 °C 1014.4 hPa Calm   3.2 km/h 77 % 0.0 mm
06:12 20.0 °C 15.8 °C 1014.4 hPa Calm   1.6 km/h 77 % 0.0 mm
06:17 19.9 °C 15.9 °C 1014.4 hPa NNW 1.6 km/h 1.6 km/h 78 % 0.0 mm
06:22 19.8 °C 15.9 °C 1014.4 hPa Calm   1.6 km/h 78 % 0.0 mm
06:32 19.8 °C 15.9 °C 1014.4 hPa Calm   1.6 km/h 78 % 0.0 mm
06:37 19.7 °C 15.8 °C 1014.4 hPa Calm   1.6 km/h 78 % 0.0 mm
06:42 19.6 °C 15.9 °C 1014.4 hPa Calm   1.6 km/h 79 % 0.0 mm
06:47 19.4 °C 15.9 °C 1014.4 hPa North 1.6 km/h 1.6 km/h 80 % 0.0 mm
06:57 18.9 °C 15.8 °C 1014.4 hPa NNE 1.6 km/h 3.2 km/h 82 % 0.0 mm
07:02 18.8 °C 15.7 °C 1014.4 hPa Calm   3.2 km/h 82 % 0.0 mm
07:07 18.9 °C 15.8 °C 1014.4 hPa NNW 1.6 km/h 3.2 km/h 82 % 0.0 mm
07:12 19.0 °C 15.9 °C 1014.4 hPa Calm   3.2 km/h 82 % 0.0 mm
07:17 18.9 °C 15.8 °C 1014.4 hPa Calm   3.2 km/h 82 % 0.0 mm
07:22 18.9 °C 15.8 °C 1014.4 hPa Calm   3.2 km/h 82 % 0.0 mm
07:32 19.1 °C 15.8 °C 1014.4 hPa Calm     81 % 0.0 mm
07:37 19.0 °C 15.7 °C 1014.4 hPa Calm     81 % 0.0 mm
07:42 19.1 °C 15.8 °C 1014.4 hPa Calm   3.2 km/h 81 % 0.0 mm
07:47 19.1 °C 15.8 °C 1014.4 hPa North 1.6 km/h 3.2 km/h 81 % 0.0 mm
07:52 19.2 °C 15.9 °C 1014.4 hPa Calm   3.2 km/h 81 % 0.0 mm
07:57 19.3 °C 16.0 °C 1014.4 hPa Calm   3.2 km/h 81 % 0.0 mm
08:02 19.4 °C 15.9 °C 1014.4 hPa Calm   3.2 km/h 80 % 0.0 mm
08:12 19.7 °C 16.2 °C 1014.4 hPa Calm   3.2 km/h 80 % 0.0 mm
08:17 20.0 °C 16.2 °C 1014.4 hPa Calm   3.2 km/h 79 % 0.0 mm
08:22 20.2 °C 16.4 °C 1014.4 hPa Calm   1.6 km/h 79 % 0.0 mm
08:32 20.8 °C 16.6 °C 1014.4 hPa Calm     77 % 0.0 mm
08:37 21.0 °C 16.6 °C 1014.4 hPa Calm     76 % 0.0 mm
08:42 21.3 °C 16.9 °C 1014.4 hPa Calm   3.2 km/h 76 % 0.0 mm
08:52 21.6 °C 16.8 °C 1014.4 hPa NNE 4.8 km/h 4.8 km/h 74 % 0.0 mm
08:57 21.7 °C 16.9 °C 1014.4 hPa NNE 1.6 km/h 3.2 km/h 74 % 0.0 mm
09:02 21.9 °C 17.1 °C 1014.4 hPa ENE 3.2 km/h 4.8 km/h 74 % 0.0 mm
09:12 22.5 °C 17.4 °C 1014.1 hPa Calm   4.8 km/h 73 % 0.0 mm
09:17 22.8 °C 17.5 °C 1014.4 hPa North 3.2 km/h 4.8 km/h 72 % 0.0 mm
09:22 23.2 °C 17.4 °C 1014.4 hPa North 4.8 km/h 4.8 km/h 70 % 0.0 mm
09:27 23.3 °C 17.1 °C 1014.4 hPa Calm   4.8 km/h 68 % 0.0 mm
09:32 23.6 °C 17.3 °C 1014.4 hPa Calm   6.4 km/h 68 % 0.0 mm
09:42 24.6 °C 17.8 °C 1014.4 hPa Calm   4.8 km/h 66 % 0.0 mm
09:47 25.2 °C 17.4 °C 1014.4 hPa NE 1.6 km/h 4.8 km/h 62 % 0.0 mm
09:52 25.0 °C 17.2 °C 1014.4 hPa NNE 1.6 km/h 3.2 km/h 62 % 0.0 mm
10:02 25.2 °C 17.1 °C 1014.4 hPa ENE 3.2 km/h 4.8 km/h 61 % 0.0 mm
10:12 25.7 °C 16.8 °C 1014.4 hPa ENE 3.2 km/h 8.0 km/h 58 % 0.0 mm
10:17 25.8 °C 17.2 °C 1014.4 hPa NE 1.6 km/h 8.0 km/h 59 % 0.0 mm
10:22 26.1 °C 16.9 °C 1014.4 hPa East 1.6 km/h 6.4 km/h 57 % 0.0 mm
10:32 26.8 °C 16.7 °C 1014.8 hPa ENE 1.6 km/h 6.4 km/h 54 % 0.0 mm
10:42 27.3 °C 16.9 °C 1014.8 hPa ENE 3.2 km/h 4.8 km/h 53 % 0.0 mm
11:02 27.7 °C 16.9 °C 1014.8 hPa ENE 3.2 km/h 4.8 km/h 52 % 0.0 mm
11:07 27.8 °C 17.3 °C 1014.8 hPa East 1.6 km/h 4.8 km/h 53 % 0.0 mm
11:12 28.2 °C 17.7 °C 1014.4 hPa Calm   6.4 km/h 53 % 0.0 mm
11:17 28.8 °C 17.7 °C 1014.8 hPa Calm   6.4 km/h 51 % 0.0 mm
11:22 29.3 °C 17.5 °C 1014.8 hPa East 3.2 km/h 4.8 km/h 49 % 0.0 mm
11:32 29.7 °C 17.2 °C 1014.8 hPa West 3.2 km/h 6.4 km/h 47 % 0.0 mm
11:42 29.9 °C 17.4 °C 1014.8 hPa ESE 1.6 km/h 8.0 km/h 47 % 0.0 mm
11:47 29.9 °C 17.4 °C 1014.8 hPa Calm   8.0 km/h 47 % 0.0 mm
11:52 30.1 °C 17.5 °C 1014.8 hPa Calm   6.4 km/h 47 % 0.0 mm
12:02 30.4 °C 17.1 °C 1014.4 hPa WSW 4.8 km/h 8.0 km/h 45 % 0.0 mm
12:12 30.7 °C 17.4 °C 1014.4 hPa SSW 3.2 km/h 9.7 km/h 45 % 0.0 mm
12:17 30.9 °C 17.6 °C 1014.4 hPa SSE 8.0 km/h 9.7 km/h 45 % 0.0 mm
12:22 31.1 °C 17.4 °C 1014.4 hPa South 1.6 km/h 11.3 km/h 44 % 0.0 mm
12:32 31.6 °C 16.7 °C 1014.1 hPa ESE 3.2 km/h 11.3 km/h 41 % 0.0 mm
12:37 31.8 °C 16.5 °C 1014.1 hPa SSE 3.2 km/h 9.7 km/h 40 % 0.0 mm
12:42 31.9 °C 17.0 °C 1014.1 hPa ENE 4.8 km/h 9.7 km/h 41 % 0.0 mm
12:47 31.6 °C 16.0 °C 1014.1 hPa East 4.8 km/h 9.7 km/h 39 % 0.0 mm
12:52 31.8 °C 16.5 °C 1014.1 hPa SE 4.8 km/h 11.3 km/h 40 % 0.0 mm
13:02 32.1 °C 16.4 °C 1014.1 hPa Calm   11.3 km/h 39 % 0.0 mm
13:07 32.2 °C 16.5 °C 1013.8 hPa ESE 1.6 km/h 11.3 km/h 39 % 0.0 mm
13:12 32.3 °C 15.8 °C 1013.8 hPa ENE 4.8 km/h 9.7 km/h 37 % 0.0 mm
13:17 32.2 °C 16.1 °C 1013.8 hPa ESE 8.0 km/h 9.7 km/h 38 % 0.0 mm
13:22 32.2 °C 16.5 °C 1013.4 hPa SE 3.2 km/h 11.3 km/h 39 % 0.0 mm
13:32 32.6 °C 17.2 °C 1013.4 hPa Calm   11.3 km/h 40 % 0.0 mm
13:37 32.9 °C 16.3 °C 1013.4 hPa ENE 4.8 km/h 11.3 km/h 37 % 0.0 mm
13:42 32.8 °C 16.2 °C 1013.4 hPa ENE 4.8 km/h 11.3 km/h 37 % 0.0 mm
13:52 33.0 °C 16.4 °C 1013.4 hPa ESE 1.6 km/h 16.1 km/h 37 % 0.0 mm
14:02 32.9 °C 16.7 °C 1013.4 hPa East 4.8 km/h 17.7 km/h 38 % 0.0 mm
14:12 33.2 °C 16.5 °C 1013.1 hPa East 4.8 km/h 17.7 km/h 37 % 0.0 mm
14:17 33.3 °C 16.6 °C 1013.1 hPa SSE 3.2 km/h 17.7 km/h 37 % 0.0 mm
14:27 33.6 °C 16.9 °C 1013.1 hPa ENE 4.8 km/h 9.7 km/h 37 % 0.0 mm
14:32 33.4 °C 16.3 °C 1013.1 hPa SE 1.6 km/h 14.5 km/h 36 % 0.0 mm
14:42 33.4 °C 16.3 °C 1013.1 hPa SE 1.6 km/h 16.1 km/h 36 % 0.0 mm
14:52 34.1 °C 15.1 °C 1012.8 hPa SW 3.2 km/h 16.1 km/h 32 % 0.0 mm
14:57 34.4 °C 15.3 °C 1012.8 hPa SW 3.2 km/h 16.1 km/h 32 % 0.0 mm
15:02 34.3 °C 14.7 °C 1012.8 hPa Calm   11.3 km/h 31 % 0.0 mm
15:07 34.5 °C 14.4 °C 1012.8 hPa SSE 3.2 km/h 11.3 km/h 30 % 0.0 mm
15:12 34.7 °C 15.6 °C 1012.8 hPa ENE 6.4 km/h 11.3 km/h 32 % 0.0 mm
15:17 34.5 °C 13.9 °C 1012.8 hPa SSE 6.4 km/h 11.3 km/h 29 % 0.0 mm
15:22 34.4 °C 14.8 °C 1012.8 hPa ESE 3.2 km/h 12.9 km/h 31 % 0.0 mm
15:32 34.5 °C 13.9 °C 1012.4 hPa SW 4.8 km/h 12.9 km/h 29 % 0.0 mm
15:42 34.5 °C 14.4 °C 1012.4 hPa ESE 4.8 km/h 11.3 km/h 30 % 0.0 mm
15:47 34.5 °C 14.4 °C 1012.4 hPa SSW 1.6 km/h 11.3 km/h 30 % 0.0 mm
15:52 34.6 °C 14.0 °C 1012.1 hPa SE 8.0 km/h 11.3 km/h 29 % 0.0 mm
15:57 34.9 °C 14.7 °C 1012.1 hPa SSW 1.6 km/h 12.9 km/h 30 % 0.0 mm
16:02 34.6 °C 14.0 °C 1012.1 hPa South 1.6 km/h 12.9 km/h 29 % 0.0 mm
16:07 34.7 °C 14.1 °C 1012.1 hPa SE 6.4 km/h 12.9 km/h 29 % 0.0 mm
16:12 34.7 °C 13.5 °C 1012.1 hPa ENE 1.6 km/h 12.9 km/h 28 % 0.0 mm
16:17 34.6 °C 13.4 °C 1012.1 hPa West 1.6 km/h 11.3 km/h 28 % 0.0 mm
16:22 34.8 °C 14.1 °C 1012.1 hPa ESE 4.8 km/h 11.3 km/h 29 % 0.0 mm
16:27 34.9 °C 13.7 °C 1011.7 hPa Calm   11.3 km/h 28 % 0.0 mm
16:32 35.3 °C 14.0 °C 1012.1 hPa Calm   11.3 km/h 28 % 0.0 mm
16:37 35.3 °C 14.0 °C 1011.7 hPa East 1.6 km/h 11.3 km/h 28 % 0.0 mm
16:42 35.4 °C 13.5 °C 1011.7 hPa NNE 4.8 km/h 11.3 km/h 27 % 0.0 mm
16:47 35.4 °C 14.1 °C 1011.7 hPa ESE 6.4 km/h 11.3 km/h 28 % 0.0 mm
16:52 35.2 °C 14.5 °C 1011.7 hPa East 1.6 km/h 11.3 km/h 29 % 0.0 mm
16:57 35.2 °C 13.9 °C 1011.7 hPa East 3.2 km/h 11.3 km/h 28 % 0.0 mm
17:02 34.9 °C 14.2 °C 1011.7 hPa ESE 1.6 km/h 11.3 km/h 29 % 0.0 mm
17:12 35.2 °C 13.9 °C 1011.4 hPa South 1.6 km/h 11.3 km/h 28 % 0.0 mm
17:17 35.2 °C 14.5 °C 1011.4 hPa Calm   11.3 km/h 29 % 0.0 mm
17:22 35.3 °C 14.0 °C 1011.4 hPa SW 4.8 km/h 8.0 km/h 28 % 0.0 mm
17:27 35.2 °C 14.5 °C 1011.4 hPa Calm   8.0 km/h 29 % 0.0 mm
17:32 35.3 °C 14.6 °C 1011.4 hPa SE 4.8 km/h 11.3 km/h 29 % 0.0 mm
17:37 35.3 °C 14.0 °C 1011.4 hPa WSW 8.0 km/h 11.3 km/h 28 % 0.0 mm
17:42 35.2 °C 13.9 °C 1011.4 hPa SSE 3.2 km/h 11.3 km/h 28 % 0.0 mm
17:47 35.4 °C 14.1 °C 1011.4 hPa South 3.2 km/h 9.7 km/h 28 % 0.0 mm
17:52 35.2 °C 14.5 °C 1011.1 hPa Calm   9.7 km/h 29 % 0.0 mm
17:57 35.3 °C 14.6 °C 1011.1 hPa SSW 1.6 km/h 9.7 km/h 29 % 0.0 mm
18:02 35.6 °C 14.3 °C 1011.1 hPa SSW 3.2 km/h 8.0 km/h 28 % 0.0 mm
18:12 35.0 °C 14.3 °C 1011.1 hPa ENE 1.6 km/h 8.0 km/h 29 % 0.0 mm
18:17 34.9 °C 14.7 °C 1011.1 hPa Calm   11.3 km/h 30 % 0.0 mm
18:22 35.3 °C 14.6 °C 1011.1 hPa East 1.6 km/h 11.3 km/h 29 % 0.0 mm
18:32 34.6 °C 14.0 °C 1011.1 hPa ENE 6.4 km/h 6.4 km/h 29 % 0.0 mm
18:42 34.7 °C 15.1 °C 1011.1 hPa Calm   14.5 km/h 31 % 0.0 mm
18:47 34.7 °C 15.1 °C 1011.1 hPa ENE 8.0 km/h 9.7 km/h 31 % 0.0 mm
18:52 34.5 °C 14.9 °C 1011.1 hPa Calm   9.7 km/h 31 % 0.0 mm
19:02 34.8 °C 15.7 °C 1010.7 hPa ENE 1.6 km/h 9.7 km/h 32 % 0.0 mm
19:12 34.1 °C 14.6 °C 1010.7 hPa Calm   6.4 km/h 31 % 0.0 mm
19:22 33.7 °C 15.2 °C 1011.1 hPa Calm   6.4 km/h 33 % 0.0 mm
19:27 33.8 °C 15.7 °C 1011.1 hPa Calm   6.4 km/h 34 % 0.0 mm
19:32 33.9 °C 15.4 °C 1011.1 hPa Calm   4.8 km/h 33 % 0.0 mm
19:37 34.0 °C 16.4 °C 1011.1 hPa Calm   1.6 km/h 35 % 0.0 mm
19:42 33.9 °C 16.3 °C 1011.1 hPa Calm   1.6 km/h 35 % 0.0 mm
19:47 33.7 °C 15.7 °C 1011.1 hPa Calm     34 % 0.0 mm
19:52 33.3 °C 15.8 °C 1011.1 hPa Calm   4.8 km/h 35 % 0.0 mm
20:02 32.8 °C 15.8 °C 1011.1 hPa Calm   8.0 km/h 36 % 0.0 mm
20:12 32.2 °C 16.5 °C 1011.1 hPa WSW 1.6 km/h 6.4 km/h 39 % 0.0 mm
20:17 31.7 °C 16.8 °C 1010.7 hPa Calm   4.8 km/h 41 % 0.0 mm
20:22 31.1 °C 16.7 °C 1011.1 hPa Calm   3.2 km/h 42 % 0.0 mm
20:32 30.1 °C 17.2 °C 1011.1 hPa Calm   3.2 km/h 46 % 0.0 mm
20:37 29.8 °C 17.3 °C 1011.1 hPa WSW 3.2 km/h 3.2 km/h 47 % 0.0 mm
20:42 29.7 °C 16.8 °C 1011.1 hPa Calm   1.6 km/h 46 % 0.0 mm
20:52 29.2 °C 17.1 °C 1011.4 hPa SSW 3.2 km/h 4.8 km/h 48 % 0.0 mm
21:02 29.6 °C 17.1 °C 1011.7 hPa SW 8.0 km/h 11.3 km/h 47 % 0.0 mm
21:12 29.8 °C 17.6 °C 1011.7 hPa West 6.4 km/h 11.3 km/h 48 % 0.0 mm
21:17 29.7 °C 18.2 °C 1011.7 hPa WSW 4.8 km/h 14.5 km/h 50 % 0.0 mm
21:27 29.3 °C 18.4 °C 1012.1 hPa SW 4.8 km/h 16.1 km/h 52 % 0.0 mm
21:32 29.1 °C 18.5 °C 1012.1 hPa SSW 9.7 km/h 16.1 km/h 53 % 0.0 mm
21:37 28.5 °C 18.3 °C 1012.1 hPa South 3.2 km/h 12.9 km/h 54 % 0.0 mm
21:42 28.3 °C 18.7 °C 1012.1 hPa SW 20.9 km/h 20.9 km/h 56 % 0.0 mm
21:52 28.7 °C 19.1 °C 1012.1 hPa SW 6.4 km/h 17.7 km/h 56 % 0.0 mm
21:57 28.8 °C 19.1 °C 1012.1 hPa West 8.0 km/h 17.7 km/h 56 % 0.0 mm
22:02 28.7 °C 19.3 °C 1011.7 hPa WSW 4.8 km/h 17.7 km/h 57 % 0.0 mm
22:12 28.4 °C 19.3 °C 1011.7 hPa WSW 4.8 km/h 17.7 km/h 58 % 0.0 mm
22:17 28.3 °C 19.5 °C 1012.1 hPa WSW 8.0 km/h 17.7 km/h 59 % 0.0 mm
22:22 28.3 °C 19.5 °C 1012.1 hPa WSW 4.8 km/h 17.7 km/h 59 % 0.0 mm
22:27 28.3 °C 19.5 °C 1012.1 hPa West 11.3 km/h 17.7 km/h 59 % 0.0 mm
22:32 28.2 °C 19.7 °C 1012.1 hPa West 9.7 km/h 17.7 km/h 60 % 0.0 mm
22:37 28.1 °C 19.6 °C 1012.1 hPa West 9.7 km/h 17.7 km/h 60 % 0.0 mm
22:42 28.0 °C 19.8 °C 1012.1 hPa WSW 6.4 km/h 17.7 km/h 61 % 0.0 mm
22:47 27.8 °C 19.6 °C 1012.1 hPa SW 4.8 km/h 17.7 km/h 61 % 0.0 mm
22:52 27.7 °C 19.8 °C 1011.7 hPa SW 3.2 km/h 16.1 km/h 62 % 0.0 mm
22:57 27.6 °C 19.9 °C 1011.7 hPa West 6.4 km/h 12.9 km/h 63 % 0.0 mm
23:02 27.4 °C 20.0 °C 1012.1 hPa WSW 6.4 km/h 12.9 km/h 64 % 0.0 mm
23:12 26.8 °C 19.7 °C 1012.4 hPa WSW 11.3 km/h 12.9 km/h 65 % 0.0 mm
23:17 26.7 °C 19.3 °C 1012.4 hPa WSW 6.4 km/h 24.1 km/h 64 % 0.0 mm
23:22 26.6 °C 19.0 °C 1012.1 hPa WSW 8.0 km/h 24.1 km/h 63 % 0.0 mm
23:32 26.6 °C 18.7 °C 1012.1 hPa WSW 19.3 km/h 22.5 km/h 62 % 0.0 mm
23:42 26.5 °C 18.6 °C 1012.4 hPa WSW 3.2 km/h 25.7 km/h 62 % 0.0 mm
23:47 26.4 °C 18.5 °C 1012.4 hPa WSW 9.7 km/h 25.7 km/h 62 % 0.0 mm
23:52 26.4 °C 18.5 °C 1012.4 hPa WSW 16.1 km/h 24.1 km/h 62 % 0.0 mm
Meteo18
Compliments of Weather Underground - 4 mb

Script developed by  Jim McMurry - jmcmurry@mwt.net Adapted for the template by  Wim van der Kuil - Leuven-Template.eu

You find our weather info also at:

European Weather Network

Weather Underground

Equipment we use:

Weather-station
Davis Vue

Weather-program
Meteohub

Weather-server
Raspberry PI 2 B+

Provider
1 and 1

Davis Vue

Meteohub

Raspberry PI 2 B+

1 and 1